sensor_id;sensor_type;location;lat;lon;timestamp;P1;durP1;ratioP1;P2;durP2;ratioP2
3627;SDS011;1830;49.000;12.074;2024-03-22T00:01:04;29.13;;;18.40;;
3627;SDS011;1830;49.000;12.074;2024-03-22T00:03:30;27.13;;;16.40;;
3627;SDS011;1830;49.000;12.074;2024-03-22T00:05:57;29.37;;;17.03;;
3627;SDS011;1830;49.000;12.074;2024-03-22T00:08:23;33.87;;;17.20;;
3627;SDS011;1830;49.000;12.074;2024-03-22T00:10:50;31.07;;;19.13;;
3627;SDS011;1830;49.000;12.074;2024-03-22T00:13:16;26.80;;;17.10;;
3627;SDS011;1830;49.000;12.074;2024-03-22T00:15:42;26.90;;;17.47;;
3627;SDS011;1830;49.000;12.074;2024-03-22T00:18:11;27.73;;;17.60;;
3627;SDS011;1830;49.000;12.074;2024-03-22T00:20:38;25.73;;;16.07;;
3627;SDS011;1830;49.000;12.074;2024-03-22T00:23:04;25.57;;;17.00;;
3627;SDS011;1830;49.000;12.074;2024-03-22T00:25:31;29.80;;;17.43;;
3627;SDS011;1830;49.000;12.074;2024-03-22T00:27:57;32.40;;;16.97;;
3627;SDS011;1830;49.000;12.074;2024-03-22T00:30:23;28.63;;;17.47;;
3627;SDS011;1830;49.000;12.074;2024-03-22T00:32:49;27.93;;;17.50;;
3627;SDS011;1830;49.000;12.074;2024-03-22T00:35:17;33.33;;;17.57;;
3627;SDS011;1830;49.000;12.074;2024-03-22T00:37:43;26.23;;;16.30;;
3627;SDS011;1830;49.000;12.074;2024-03-22T00:40:10;31.50;;;18.30;;
3627;SDS011;1830;49.000;12.074;2024-03-22T00:42:36;26.37;;;17.20;;
3627;SDS011;1830;49.000;12.074;2024-03-22T00:45:03;28.17;;;16.63;;
3627;SDS011;1830;49.000;12.074;2024-03-22T00:47:29;28.80;;;16.73;;
3627;SDS011;1830;49.000;12.074;2024-03-22T00:49:56;28.40;;;17.83;;
3627;SDS011;1830;49.000;12.074;2024-03-22T00:52:25;38.17;;;17.70;;
3627;SDS011;1830;49.000;12.074;2024-03-22T00:54:51;31.30;;;18.63;;
3627;SDS011;1830;49.000;12.074;2024-03-22T00:57:17;32.80;;;18.53;;
3627;SDS011;1830;49.000;12.074;2024-03-22T00:59:44;32.37;;;18.93;;
3627;SDS011;1830;49.000;12.074;2024-03-22T01:02:10;35.20;;;20.47;;
3627;SDS011;1830;49.000;12.074;2024-03-22T01:04:36;34.70;;;18.80;;
3627;SDS011;1830;49.000;12.074;2024-03-22T01:07:02;34.03;;;16.80;;
3627;SDS011;1830;49.000;12.074;2024-03-22T01:09:30;32.00;;;18.00;;
3627;SDS011;1830;49.000;12.074;2024-03-22T01:11:56;28.87;;;17.43;;
3627;SDS011;1830;49.000;12.074;2024-03-22T01:14:23;30.97;;;16.50;;
3627;SDS011;1830;49.000;12.074;2024-03-22T01:16:49;38.73;;;18.20;;
3627;SDS011;1830;49.000;12.074;2024-03-22T01:19:16;33.47;;;18.07;;
3627;SDS011;1830;49.000;12.074;2024-03-22T01:21:42;29.93;;;16.77;;
3627;SDS011;1830;49.000;12.074;2024-03-22T01:24:08;27.90;;;16.40;;
3627;SDS011;1830;49.000;12.074;2024-03-22T01:26:35;31.97;;;19.67;;
3627;SDS011;1830;49.000;12.074;2024-03-22T01:29:02;36.60;;;18.70;;
3627;SDS011;1830;49.000;12.074;2024-03-22T01:31:28;39.10;;;21.20;;
3627;SDS011;1830;49.000;12.074;2024-03-22T01:33:55;34.63;;;19.03;;
3627;SDS011;1830;49.000;12.074;2024-03-22T01:36:20;34.03;;;19.03;;
3627;SDS011;1830;49.000;12.074;2024-03-22T01:38:47;34.43;;;18.33;;
3627;SDS011;1830;49.000;12.074;2024-03-22T01:41:13;34.30;;;18.73;;
3627;SDS011;1830;49.000;12.074;2024-03-22T01:43:41;35.67;;;18.50;;
3627;SDS011;1830;49.000;12.074;2024-03-22T01:46:07;32.23;;;19.40;;
3627;SDS011;1830;49.000;12.074;2024-03-22T01:48:34;30.30;;;17.83;;
3627;SDS011;1830;49.000;12.074;2024-03-22T01:51:00;33.03;;;19.20;;
3627;SDS011;1830;49.000;12.074;2024-03-22T01:53:28;29.43;;;16.50;;
3627;SDS011;1830;49.000;12.074;2024-03-22T01:55:54;33.27;;;18.77;;
3627;SDS011;1830;49.000;12.074;2024-03-22T01:58:20;27.63;;;17.27;;
3627;SDS011;1830;49.000;12.074;2024-03-22T02:00:49;27.63;;;16.63;;
3627;SDS011;1830;49.000;12.074;2024-03-22T02:03:16;26.63;;;17.00;;
3627;SDS011;1830;49.000;12.074;2024-03-22T02:05:42;29.83;;;18.00;;
3627;SDS011;1830;49.000;12.074;2024-03-22T02:08:08;30.50;;;17.00;;
3627;SDS011;1830;49.000;12.074;2024-03-22T02:10:34;26.40;;;16.70;;
3627;SDS011;1830;49.000;12.074;2024-03-22T02:13:01;27.30;;;17.20;;
3627;SDS011;1830;49.000;12.074;2024-03-22T02:15:27;27.90;;;17.07;;
3627;SDS011;1830;49.000;12.074;2024-03-22T02:17:55;25.93;;;17.03;;
3627;SDS011;1830;49.000;12.074;2024-03-22T02:20:21;26.57;;;16.30;;
3627;SDS011;1830;49.000;12.074;2024-03-22T02:22:48;31.80;;;16.83;;
3627;SDS011;1830;49.000;12.074;2024-03-22T02:25:15;28.40;;;15.33;;
3627;SDS011;1830;49.000;12.074;2024-03-22T02:27:42;26.40;;;16.40;;
3627;SDS011;1830;49.000;12.074;2024-03-22T02:30:08;29.37;;;18.37;;
3627;SDS011;1830;49.000;12.074;2024-03-22T02:32:36;32.20;;;18.27;;
3627;SDS011;1830;49.000;12.074;2024-03-22T02:35:10;32.90;;;17.37;;
3627;SDS011;1830;49.000;12.074;2024-03-22T02:37:38;28.40;;;15.40;;
3627;SDS011;1830;49.000;12.074;2024-03-22T02:40:04;27.47;;;17.17;;
3627;SDS011;1830;49.000;12.074;2024-03-22T02:42:37;26.47;;;16.73;;
3627;SDS011;1830;49.000;12.074;2024-03-22T02:45:03;29.87;;;16.33;;
3627;SDS011;1830;49.000;12.074;2024-03-22T02:47:30;24.53;;;15.10;;
3627;SDS011;1830;49.000;12.074;2024-03-22T02:49:56;30.70;;;18.57;;
3627;SDS011;1830;49.000;12.074;2024-03-22T02:52:22;27.67;;;16.80;;
3627;SDS011;1830;49.000;12.074;2024-03-22T02:54:48;22.10;;;14.97;;
3627;SDS011;1830;49.000;12.074;2024-03-22T02:57:15;29.20;;;17.83;;
3627;SDS011;1830;49.000;12.074;2024-03-22T02:59:43;26.50;;;17.30;;
3627;SDS011;1830;49.000;12.074;2024-03-22T03:02:10;30.97;;;16.10;;
3627;SDS011;1830;49.000;12.074;2024-03-22T03:04:37;26.17;;;15.43;;
3627;SDS011;1830;49.000;12.074;2024-03-22T03:07:04;25.87;;;16.00;;
3627;SDS011;1830;49.000;12.074;2024-03-22T03:09:29;29.00;;;16.40;;
3627;SDS011;1830;49.000;12.074;2024-03-22T03:11:56;28.20;;;17.03;;
3627;SDS011;1830;49.000;12.074;2024-03-22T03:14:22;24.40;;;16.60;;
3627;SDS011;1830;49.000;12.074;2024-03-22T03:16:50;27.23;;;15.33;;
3627;SDS011;1830;49.000;12.074;2024-03-22T03:19:16;22.87;;;15.33;;
3627;SDS011;1830;49.000;12.074;2024-03-22T03:21:43;32.20;;;17.17;;
3627;SDS011;1830;49.000;12.074;2024-03-22T03:24:09;29.17;;;16.57;;
3627;SDS011;1830;49.000;12.074;2024-03-22T03:26:35;46.70;;;28.87;;
3627;SDS011;1830;49.000;12.074;2024-03-22T03:29:01;31.50;;;20.40;;
3627;SDS011;1830;49.000;12.074;2024-03-22T03:31:28;24.73;;;15.80;;
3627;SDS011;1830;49.000;12.074;2024-03-22T03:33:55;29.77;;;17.27;;
3627;SDS011;1830;49.000;12.074;2024-03-22T03:36:22;26.40;;;15.83;;
3627;SDS011;1830;49.000;12.074;2024-03-22T03:38:48;26.00;;;16.53;;
3627;SDS011;1830;49.000;12.074;2024-03-22T03:41:15;24.37;;;15.63;;
3627;SDS011;1830;49.000;12.074;2024-03-22T03:43:41;23.67;;;15.63;;
3627;SDS011;1830;49.000;12.074;2024-03-22T03:46:07;25.20;;;15.20;;
3627;SDS011;1830;49.000;12.074;2024-03-22T03:48:33;36.73;;;13.80;;
3627;SDS011;1830;49.000;12.074;2024-03-22T03:51:01;21.17;;;14.30;;
3627;SDS011;1830;49.000;12.074;2024-03-22T03:53:28;22.20;;;13.30;;
3627;SDS011;1830;49.000;12.074;2024-03-22T03:55:55;22.30;;;14.07;;
3627;SDS011;1830;49.000;12.074;2024-03-22T03:58:20;21.60;;;13.37;;
3627;SDS011;1830;49.000;12.074;2024-03-22T04:00:47;18.43;;;12.90;;
3627;SDS011;1830;49.000;12.074;2024-03-22T04:03:13;36.13;;;13.60;;
3627;SDS011;1830;49.000;12.074;2024-03-22T04:05:40;51.60;;;12.50;;
3627;SDS011;1830;49.000;12.074;2024-03-22T04:08:07;58.43;;;13.97;;
3627;SDS011;1830;49.000;12.074;2024-03-22T04:10:34;32.23;;;14.80;;
3627;SDS011;1830;49.000;12.074;2024-03-22T04:13:00;29.50;;;15.77;;
3627;SDS011;1830;49.000;12.074;2024-03-22T04:15:27;23.50;;;14.80;;
3627;SDS011;1830;49.000;12.074;2024-03-22T04:17:54;23.13;;;12.93;;
3627;SDS011;1830;49.000;12.074;2024-03-22T04:20:22;21.03;;;14.00;;
3627;SDS011;1830;49.000;12.074;2024-03-22T04:22:48;19.83;;;13.67;;
3627;SDS011;1830;49.000;12.074;2024-03-22T04:25:18;17.77;;;12.87;;
3627;SDS011;1830;49.000;12.074;2024-03-22T04:27:44;17.10;;;12.30;;
3627;SDS011;1830;49.000;12.074;2024-03-22T04:30:11;14.70;;;11.07;;
3627;SDS011;1830;49.000;12.074;2024-03-22T04:32:37;26.60;;;11.37;;
3627;SDS011;1830;49.000;12.074;2024-03-22T04:35:04;15.40;;;11.37;;
3627;SDS011;1830;49.000;12.074;2024-03-22T04:37:30;16.07;;;12.00;;
3627;SDS011;1830;49.000;12.074;2024-03-22T04:39:57;14.50;;;10.37;;
3627;SDS011;1830;49.000;12.074;2024-03-22T04:42:25;16.57;;;11.90;;
3627;SDS011;1830;49.000;12.074;2024-03-22T04:44:51;16.50;;;11.47;;
3627;SDS011;1830;49.000;12.074;2024-03-22T04:47:18;17.60;;;11.30;;
3627;SDS011;1830;49.000;12.074;2024-03-22T04:49:45;16.03;;;10.80;;
3627;SDS011;1830;49.000;12.074;2024-03-22T04:52:11;16.57;;;10.87;;
3627;SDS011;1830;49.000;12.074;2024-03-22T04:54:37;14.43;;;10.67;;
3627;SDS011;1830;49.000;12.074;2024-03-22T04:57:03;13.97;;;9.93;;
3627;SDS011;1830;49.000;12.074;2024-03-22T04:59:31;16.63;;;9.70;;
3627;SDS011;1830;49.000;12.074;2024-03-22T05:02:04;14.10;;;10.60;;
3627;SDS011;1830;49.000;12.074;2024-03-22T05:04:31;14.97;;;10.77;;
3627;SDS011;1830;49.000;12.074;2024-03-22T05:06:57;14.90;;;11.47;;
3627;SDS011;1830;49.000;12.074;2024-03-22T05:09:24;17.77;;;11.90;;
3627;SDS011;1830;49.000;12.074;2024-03-22T05:11:49;20.40;;;13.00;;
3627;SDS011;1830;49.000;12.074;2024-03-22T05:14:17;15.77;;;11.30;;
3627;SDS011;1830;49.000;12.074;2024-03-22T05:16:46;18.00;;;11.00;;
3627;SDS011;1830;49.000;12.074;2024-03-22T05:19:13;20.40;;;12.57;;
3627;SDS011;1830;49.000;12.074;2024-03-22T05:21:39;16.27;;;11.90;;
3627;SDS011;1830;49.000;12.074;2024-03-22T05:24:06;21.23;;;12.20;;
3627;SDS011;1830;49.000;12.074;2024-03-22T05:26:32;13.93;;;10.43;;
3627;SDS011;1830;49.000;12.074;2024-03-22T05:29:01;17.20;;;11.97;;
3627;SDS011;1830;49.000;12.074;2024-03-22T05:31:27;17.77;;;11.20;;
3627;SDS011;1830;49.000;12.074;2024-03-22T05:33:56;18.27;;;11.00;;
3627;SDS011;1830;49.000;12.074;2024-03-22T05:36:21;20.00;;;12.60;;
3627;SDS011;1830;49.000;12.074;2024-03-22T05:38:48;17.53;;;12.33;;
3627;SDS011;1830;49.000;12.074;2024-03-22T05:41:14;15.93;;;12.00;;
3627;SDS011;1830;49.000;12.074;2024-03-22T05:43:41;21.30;;;12.33;;
3627;SDS011;1830;49.000;12.074;2024-03-22T05:46:07;20.50;;;11.80;;
3627;SDS011;1830;49.000;12.074;2024-03-22T05:48:33;14.00;;;10.17;;
3627;SDS011;1830;49.000;12.074;2024-03-22T05:51:01;15.80;;;12.20;;
3627;SDS011;1830;49.000;12.074;2024-03-22T05:53:27;18.90;;;10.60;;
3627;SDS011;1830;49.000;12.074;2024-03-22T05:55:53;14.23;;;10.80;;
3627;SDS011;1830;49.000;12.074;2024-03-22T05:58:20;17.10;;;11.97;;
3627;SDS011;1830;49.000;12.074;2024-03-22T06:00:46;17.90;;;11.17;;
3627;SDS011;1830;49.000;12.074;2024-03-22T06:03:14;21.67;;;12.67;;
3627;SDS011;1830;49.000;12.074;2024-03-22T06:05:40;22.97;;;12.93;;
3627;SDS011;1830;49.000;12.074;2024-03-22T06:08:08;29.20;;;11.87;;
3627;SDS011;1830;49.000;12.074;2024-03-22T06:10:34;16.97;;;11.97;;
3627;SDS011;1830;49.000;12.074;2024-03-22T06:13:01;15.53;;;12.13;;
3627;SDS011;1830;49.000;12.074;2024-03-22T06:15:26;20.27;;;13.40;;
3627;SDS011;1830;49.000;12.074;2024-03-22T06:17:54;20.70;;;12.03;;
3627;SDS011;1830;49.000;12.074;2024-03-22T06:20:20;22.23;;;13.40;;
3627;SDS011;1830;49.000;12.074;2024-03-22T06:22:47;18.50;;;12.40;;
3627;SDS011;1830;49.000;12.074;2024-03-22T06:25:14;21.03;;;13.03;;
3627;SDS011;1830;49.000;12.074;2024-03-22T06:27:41;35.53;;;13.77;;
3627;SDS011;1830;49.000;12.074;2024-03-22T06:30:07;25.27;;;13.70;;
3627;SDS011;1830;49.000;12.074;2024-03-22T06:32:34;38.77;;;14.77;;
3627;SDS011;1830;49.000;12.074;2024-03-22T06:35:00;28.40;;;14.40;;
3627;SDS011;1830;49.000;12.074;2024-03-22T06:37:28;24.37;;;14.10;;
3627;SDS011;1830;49.000;12.074;2024-03-22T06:39:54;23.30;;;15.03;;
3627;SDS011;1830;49.000;12.074;2024-03-22T06:42:22;30.23;;;16.20;;
3627;SDS011;1830;49.000;12.074;2024-03-22T06:44:48;25.33;;;14.40;;
3627;SDS011;1830;49.000;12.074;2024-03-22T06:47:15;19.90;;;13.40;;
3627;SDS011;1830;49.000;12.074;2024-03-22T06:49:41;27.30;;;14.33;;
3627;SDS011;1830;49.000;12.074;2024-03-22T06:52:08;26.77;;;16.00;;
3627;SDS011;1830;49.000;12.074;2024-03-22T06:54:34;37.40;;;15.53;;
3627;SDS011;1830;49.000;12.074;2024-03-22T06:57:01;37.43;;;15.70;;
3627;SDS011;1830;49.000;12.074;2024-03-22T06:59:28;22.30;;;14.90;;
3627;SDS011;1830;49.000;12.074;2024-03-22T07:01:55;21.27;;;14.93;;
3627;SDS011;1830;49.000;12.074;2024-03-22T07:04:22;22.63;;;14.50;;
3627;SDS011;1830;49.000;12.074;2024-03-22T07:06:48;29.13;;;14.03;;
3627;SDS011;1830;49.000;12.074;2024-03-22T07:09:14;23.50;;;15.00;;
3627;SDS011;1830;49.000;12.074;2024-03-22T07:11:41;20.70;;;14.57;;
3627;SDS011;1830;49.000;12.074;2024-03-22T07:14:07;27.70;;;15.90;;
3627;SDS011;1830;49.000;12.074;2024-03-22T07:16:35;26.33;;;16.53;;
3627;SDS011;1830;49.000;12.074;2024-03-22T07:19:02;24.17;;;15.63;;
3627;SDS011;1830;49.000;12.074;2024-03-22T07:21:29;24.70;;;16.10;;
3627;SDS011;1830;49.000;12.074;2024-03-22T07:23:56;25.17;;;16.03;;
3627;SDS011;1830;49.000;12.074;2024-03-22T07:26:22;29.13;;;16.33;;
3627;SDS011;1830;49.000;12.074;2024-03-22T07:28:48;29.33;;;15.67;;
3627;SDS011;1830;49.000;12.074;2024-03-22T07:31:15;26.70;;;17.63;;
3627;SDS011;1830;49.000;12.074;2024-03-22T07:33:42;29.60;;;18.83;;
3627;SDS011;1830;49.000;12.074;2024-03-22T07:36:09;24.67;;;16.73;;
3627;SDS011;1830;49.000;12.074;2024-03-22T07:38:35;26.37;;;16.43;;
3627;SDS011;1830;49.000;12.074;2024-03-22T07:41:03;27.20;;;16.50;;
3627;SDS011;1830;49.000;12.074;2024-03-22T07:43:29;26.93;;;17.10;;
3627;SDS011;1830;49.000;12.074;2024-03-22T07:45:56;26.90;;;17.40;;
3627;SDS011;1830;49.000;12.074;2024-03-22T07:48:22;26.50;;;16.23;;
3627;SDS011;1830;49.000;12.074;2024-03-22T07:50:56;24.73;;;16.50;;
3627;SDS011;1830;49.000;12.074;2024-03-22T07:53:22;25.60;;;16.17;;
3627;SDS011;1830;49.000;12.074;2024-03-22T07:55:49;24.23;;;16.60;;
3627;SDS011;1830;49.000;12.074;2024-03-22T07:58:15;24.50;;;16.43;;
3627;SDS011;1830;49.000;12.074;2024-03-22T08:00:42;28.60;;;17.73;;
3627;SDS011;1830;49.000;12.074;2024-03-22T08:03:08;24.97;;;17.10;;
3627;SDS011;1830;49.000;12.074;2024-03-22T08:05:40;29.43;;;16.53;;
3627;SDS011;1830;49.000;12.074;2024-03-22T08:08:08;21.40;;;16.00;;
3627;SDS011;1830;49.000;12.074;2024-03-22T08:10:35;25.13;;;16.70;;
3627;SDS011;1830;49.000;12.074;2024-03-22T08:13:01;24.70;;;17.10;;
3627;SDS011;1830;49.000;12.074;2024-03-22T08:15:28;27.87;;;17.77;;
3627;SDS011;1830;49.000;12.074;2024-03-22T08:17:53;30.67;;;17.70;;
3627;SDS011;1830;49.000;12.074;2024-03-22T08:20:22;24.23;;;16.73;;
3627;SDS011;1830;49.000;12.074;2024-03-22T08:22:48;22.97;;;15.60;;
3627;SDS011;1830;49.000;12.074;2024-03-22T08:25:16;24.37;;;16.80;;
3627;SDS011;1830;49.000;12.074;2024-03-22T08:27:43;27.53;;;18.13;;
3627;SDS011;1830;49.000;12.074;2024-03-22T08:30:11;25.83;;;16.20;;
3627;SDS011;1830;49.000;12.074;2024-03-22T08:32:37;21.63;;;15.07;;
3627;SDS011;1830;49.000;12.074;2024-03-22T08:35:04;35.23;;;17.83;;
3627;SDS011;1830;49.000;12.074;2024-03-22T08:37:31;23.50;;;16.57;;
3627;SDS011;1830;49.000;12.074;2024-03-22T08:40:00;25.67;;;17.63;;
3627;SDS011;1830;49.000;12.074;2024-03-22T08:42:27;25.73;;;17.90;;
3627;SDS011;1830;49.000;12.074;2024-03-22T08:44:53;28.40;;;17.33;;
3627;SDS011;1830;49.000;12.074;2024-03-22T08:47:19;38.90;;;18.77;;
3627;SDS011;1830;49.000;12.074;2024-03-22T08:49:46;28.40;;;19.00;;
3627;SDS011;1830;49.000;12.074;2024-03-22T08:52:12;31.63;;;19.33;;
3627;SDS011;1830;49.000;12.074;2024-03-22T08:54:39;32.50;;;21.40;;
3627;SDS011;1830;49.000;12.074;2024-03-22T08:57:05;31.90;;;20.40;;
3627;SDS011;1830;49.000;12.074;2024-03-22T08:59:33;34.57;;;20.90;;
3627;SDS011;1830;49.000;12.074;2024-03-22T09:02:00;32.70;;;21.10;;
3627;SDS011;1830;49.000;12.074;2024-03-22T09:04:27;33.30;;;23.13;;
3627;SDS011;1830;49.000;12.074;2024-03-22T09:06:52;36.80;;;22.00;;
3627;SDS011;1830;49.000;12.074;2024-03-22T09:09:19;41.23;;;25.23;;
3627;SDS011;1830;49.000;12.074;2024-03-22T09:11:45;36.57;;;22.60;;
3627;SDS011;1830;49.000;12.074;2024-03-22T09:14:13;37.13;;;23.83;;
3627;SDS011;1830;49.000;12.074;2024-03-22T09:16:40;40.30;;;24.47;;
3627;SDS011;1830;49.000;12.074;2024-03-22T09:19:07;43.07;;;26.80;;
3627;SDS011;1830;49.000;12.074;2024-03-22T09:21:33;49.17;;;28.10;;
3627;SDS011;1830;49.000;12.074;2024-03-22T09:24:00;53.63;;;28.33;;
3627;SDS011;1830;49.000;12.074;2024-03-22T09:26:28;47.80;;;29.60;;
3627;SDS011;1830;49.000;12.074;2024-03-22T09:28:55;49.40;;;28.80;;
3627;SDS011;1830;49.000;12.074;2024-03-22T09:31:21;52.83;;;29.07;;
3627;SDS011;1830;49.000;12.074;2024-03-22T09:33:49;49.40;;;29.63;;
3627;SDS011;1830;49.000;12.074;2024-03-22T09:36:15;49.83;;;28.77;;
3627;SDS011;1830;49.000;12.074;2024-03-22T09:38:41;42.60;;;27.00;;
3627;SDS011;1830;49.000;12.074;2024-03-22T09:41:07;41.80;;;26.30;;
3627;SDS011;1830;49.000;12.074;2024-03-22T09:43:34;46.63;;;27.27;;
3627;SDS011;1830;49.000;12.074;2024-03-22T09:46:00;42.97;;;28.10;;
3627;SDS011;1830;49.000;12.074;2024-03-22T09:48:27;43.70;;;27.53;;
3627;SDS011;1830;49.000;12.074;2024-03-22T09:50:56;40.83;;;26.27;;
3627;SDS011;1830;49.000;12.074;2024-03-22T09:53:22;43.97;;;26.60;;
3627;SDS011;1830;49.000;12.074;2024-03-22T09:55:50;43.97;;;27.27;;
3627;SDS011;1830;49.000;12.074;2024-03-22T09:58:22;46.70;;;27.47;;
3627;SDS011;1830;49.000;12.074;2024-03-22T10:00:48;48.10;;;28.07;;
3627;SDS011;1830;49.000;12.074;2024-03-22T10:03:15;45.57;;;27.57;;
3627;SDS011;1830;49.000;12.074;2024-03-22T10:05:41;45.17;;;27.10;;
3627;SDS011;1830;49.000;12.074;2024-03-22T10:08:09;45.63;;;26.77;;
3627;SDS011;1830;49.000;12.074;2024-03-22T10:10:35;41.00;;;25.27;;
3627;SDS011;1830;49.000;12.074;2024-03-22T10:13:05;42.87;;;26.73;;
3627;SDS011;1830;49.000;12.074;2024-03-22T10:15:31;39.57;;;26.77;;
3627;SDS011;1830;49.000;12.074;2024-03-22T10:17:58;53.60;;;29.70;;
3627;SDS011;1830;49.000;12.074;2024-03-22T10:20:24;58.37;;;32.47;;
3627;SDS011;1830;49.000;12.074;2024-03-22T10:22:55;43.13;;;27.80;;
3627;SDS011;1830;49.000;12.074;2024-03-22T10:25:24;55.10;;;33.60;;
3627;SDS011;1830;49.000;12.074;2024-03-22T10:27:53;51.30;;;33.50;;
3627;SDS011;1830;49.000;12.074;2024-03-22T10:30:19;58.53;;;35.93;;
3627;SDS011;1830;49.000;12.074;2024-03-22T10:32:46;65.37;;;40.80;;
3627;SDS011;1830;49.000;12.074;2024-03-22T10:35:14;57.50;;;32.07;;
3627;SDS011;1830;49.000;12.074;2024-03-22T10:37:42;47.93;;;32.00;;
3627;SDS011;1830;49.000;12.074;2024-03-22T10:40:08;46.70;;;31.33;;
3627;SDS011;1830;49.000;12.074;2024-03-22T10:42:38;46.50;;;30.90;;
3627;SDS011;1830;49.000;12.074;2024-03-22T10:45:05;51.10;;;32.10;;
3627;SDS011;1830;49.000;12.074;2024-03-22T10:47:34;51.00;;;33.50;;
3627;SDS011;1830;49.000;12.074;2024-03-22T10:50:03;48.37;;;32.00;;
3627;SDS011;1830;49.000;12.074;2024-03-22T10:52:33;51.43;;;32.60;;
3627;SDS011;1830;49.000;12.074;2024-03-22T10:55:03;50.47;;;32.47;;
3627;SDS011;1830;49.000;12.074;2024-03-22T10:57:33;48.83;;;31.10;;
3627;SDS011;1830;49.000;12.074;2024-03-22T11:00:07;50.20;;;30.13;;
3627;SDS011;1830;49.000;12.074;2024-03-22T11:02:36;50.43;;;33.20;;
3627;SDS011;1830;49.000;12.074;2024-03-22T11:05:02;48.53;;;30.63;;
3627;SDS011;1830;49.000;12.074;2024-03-22T11:07:30;56.17;;;31.37;;
3627;SDS011;1830;49.000;12.074;2024-03-22T11:09:56;46.73;;;29.17;;
3627;SDS011;1830;49.000;12.074;2024-03-22T11:12:24;46.67;;;32.27;;
3627;SDS011;1830;49.000;12.074;2024-03-22T11:14:50;47.57;;;30.63;;
3627;SDS011;1830;49.000;12.074;2024-03-22T11:17:19;52.57;;;31.83;;
3627;SDS011;1830;49.000;12.074;2024-03-22T11:19:48;52.70;;;32.57;;
3627;SDS011;1830;49.000;12.074;2024-03-22T11:22:14;47.43;;;31.50;;
3627;SDS011;1830;49.000;12.074;2024-03-22T11:24:41;46.40;;;31.40;;
3627;SDS011;1830;49.000;12.074;2024-03-22T11:27:07;50.87;;;32.37;;
3627;SDS011;1830;49.000;12.074;2024-03-22T11:29:35;49.77;;;30.37;;
3627;SDS011;1830;49.000;12.074;2024-03-22T11:32:04;52.20;;;33.80;;
3627;SDS011;1830;49.000;12.074;2024-03-22T11:34:31;49.60;;;31.87;;
3627;SDS011;1830;49.000;12.074;2024-03-22T11:36:58;43.23;;;30.17;;
3627;SDS011;1830;49.000;12.074;2024-03-22T11:39:24;49.60;;;33.37;;
3627;SDS011;1830;49.000;12.074;2024-03-22T11:41:51;49.93;;;32.13;;
3627;SDS011;1830;49.000;12.074;2024-03-22T11:44:17;51.00;;;31.47;;
3627;SDS011;1830;49.000;12.074;2024-03-22T11:46:44;49.63;;;33.20;;
3627;SDS011;1830;49.000;12.074;2024-03-22T11:49:10;51.60;;;33.20;;
3627;SDS011;1830;49.000;12.074;2024-03-22T11:51:39;49.17;;;32.43;;
3627;SDS011;1830;49.000;12.074;2024-03-22T11:54:05;48.00;;;32.33;;
3627;SDS011;1830;49.000;12.074;2024-03-22T11:56:34;49.63;;;33.37;;
3627;SDS011;1830;49.000;12.074;2024-03-22T11:59:00;50.80;;;32.93;;
3627;SDS011;1830;49.000;12.074;2024-03-22T12:01:28;49.97;;;32.03;;
3627;SDS011;1830;49.000;12.074;2024-03-22T12:03:55;52.20;;;34.00;;
3627;SDS011;1830;49.000;12.074;2024-03-22T12:06:21;49.13;;;32.00;;
3627;SDS011;1830;49.000;12.074;2024-03-22T12:08:49;45.07;;;30.37;;
3627;SDS011;1830;49.000;12.074;2024-03-22T12:11:16;48.23;;;31.33;;
3627;SDS011;1830;49.000;12.074;2024-03-22T12:13:42;46.07;;;30.10;;
3627;SDS011;1830;49.000;12.074;2024-03-22T12:16:09;49.20;;;34.07;;
3627;SDS011;1830;49.000;12.074;2024-03-22T12:18:35;47.07;;;29.70;;
3627;SDS011;1830;49.000;12.074;2024-03-22T12:21:01;49.03;;;29.43;;
3627;SDS011;1830;49.000;12.074;2024-03-22T12:23:28;42.53;;;29.60;;
3627;SDS011;1830;49.000;12.074;2024-03-22T12:25:56;39.20;;;27.60;;
3627;SDS011;1830;49.000;12.074;2024-03-22T12:28:22;48.47;;;30.70;;
3627;SDS011;1830;49.000;12.074;2024-03-22T12:30:49;41.03;;;28.50;;
3627;SDS011;1830;49.000;12.074;2024-03-22T12:33:15;44.50;;;30.60;;
3627;SDS011;1830;49.000;12.074;2024-03-22T12:35:42;48.53;;;29.40;;
3627;SDS011;1830;49.000;12.074;2024-03-22T12:38:09;44.70;;;28.57;;
3627;SDS011;1830;49.000;12.074;2024-03-22T12:40:37;43.20;;;28.00;;
3627;SDS011;1830;49.000;12.074;2024-03-22T12:43:05;40.50;;;25.83;;
3627;SDS011;1830;49.000;12.074;2024-03-22T12:45:33;40.10;;;26.77;;
3627;SDS011;1830;49.000;12.074;2024-03-22T12:48:00;38.73;;;25.40;;
3627;SDS011;1830;49.000;12.074;2024-03-22T12:50:26;45.33;;;26.50;;
3627;SDS011;1830;49.000;12.074;2024-03-22T12:52:53;40.07;;;25.53;;
3627;SDS011;1830;49.000;12.074;2024-03-22T12:55:19;32.17;;;22.90;;
3627;SDS011;1830;49.000;12.074;2024-03-22T12:57:46;30.87;;;20.23;;
3627;SDS011;1830;49.000;12.074;2024-03-22T13:00:13;29.77;;;21.23;;
3627;SDS011;1830;49.000;12.074;2024-03-22T13:02:43;37.33;;;24.27;;
3627;SDS011;1830;49.000;12.074;2024-03-22T13:05:09;39.40;;;25.37;;
3627;SDS011;1830;49.000;12.074;2024-03-22T13:07:36;40.80;;;27.47;;
3627;SDS011;1830;49.000;12.074;2024-03-22T13:10:02;32.00;;;20.97;;
3627;SDS011;1830;49.000;12.074;2024-03-22T13:12:29;21.53;;;12.60;;
3627;SDS011;1830;49.000;12.074;2024-03-22T13:14:56;15.40;;;11.40;;
3627;SDS011;1830;49.000;12.074;2024-03-22T13:17:25;15.60;;;11.63;;
3627;SDS011;1830;49.000;12.074;2024-03-22T13:19:51;17.43;;;12.20;;
3627;SDS011;1830;49.000;12.074;2024-03-22T13:22:17;15.40;;;10.90;;
3627;SDS011;1830;49.000;12.074;2024-03-22T13:24:43;13.63;;;10.20;;
3627;SDS011;1830;49.000;12.074;2024-03-22T13:27:10;16.40;;;11.47;;
3627;SDS011;1830;49.000;12.074;2024-03-22T13:29:37;16.27;;;11.93;;
3627;SDS011;1830;49.000;12.074;2024-03-22T13:32:04;13.37;;;9.97;;
3627;SDS011;1830;49.000;12.074;2024-03-22T13:34:33;17.63;;;10.67;;
3627;SDS011;1830;49.000;12.074;2024-03-22T13:37:00;15.00;;;9.77;;
3627;SDS011;1830;49.000;12.074;2024-03-22T13:39:26;14.97;;;9.73;;
3627;SDS011;1830;49.000;12.074;2024-03-22T13:41:54;13.70;;;9.40;;
3627;SDS011;1830;49.000;12.074;2024-03-22T13:44:20;13.00;;;9.47;;
3627;SDS011;1830;49.000;12.074;2024-03-22T13:46:47;16.73;;;9.93;;
3627;SDS011;1830;49.000;12.074;2024-03-22T13:49:15;13.70;;;10.00;;
3627;SDS011;1830;49.000;12.074;2024-03-22T13:51:43;12.27;;;9.70;;
3627;SDS011;1830;49.000;12.074;2024-03-22T13:54:09;14.97;;;8.73;;
3627;SDS011;1830;49.000;12.074;2024-03-22T13:56:38;13.30;;;9.10;;
3627;SDS011;1830;49.000;12.074;2024-03-22T13:59:03;15.50;;;9.50;;
3627;SDS011;1830;49.000;12.074;2024-03-22T14:01:31;14.10;;;9.73;;
3627;SDS011;1830;49.000;12.074;2024-03-22T14:03:57;13.77;;;9.93;;
3627;SDS011;1830;49.000;12.074;2024-03-22T14:06:24;15.00;;;9.77;;
3627;SDS011;1830;49.000;12.074;2024-03-22T14:08:51;14.87;;;9.33;;
3627;SDS011;1830;49.000;12.074;2024-03-22T14:11:25;16.70;;;10.80;;
3627;SDS011;1830;49.000;12.074;2024-03-22T14:13:51;20.03;;;11.10;;
3627;SDS011;1830;49.000;12.074;2024-03-22T14:16:17;12.03;;;9.10;;
3627;SDS011;1830;49.000;12.074;2024-03-22T14:18:43;14.70;;;10.63;;
3627;SDS011;1830;49.000;12.074;2024-03-22T14:21:10;15.27;;;11.00;;
3627;SDS011;1830;49.000;12.074;2024-03-22T14:23:39;14.03;;;10.00;;
3627;SDS011;1830;49.000;12.074;2024-03-22T14:26:07;15.20;;;10.80;;
3627;SDS011;1830;49.000;12.074;2024-03-22T14:28:34;14.13;;;10.80;;
3627;SDS011;1830;49.000;12.074;2024-03-22T14:31:02;13.40;;;9.90;;
3627;SDS011;1830;49.000;12.074;2024-03-22T14:33:28;14.10;;;9.87;;